sensor_id;sensor_type;location;lat;lon;timestamp;temperature;humidity
36660;DHT22;22654;51.054;3.654;2022-10-14T00:02:05;15.50;99.90
36660;DHT22;22654;51.054;3.654;2022-10-14T00:04:31;15.30;99.90
36660;DHT22;22654;51.054;3.654;2022-10-14T00:06:57;15.50;99.90
36660;DHT22;22654;51.054;3.654;2022-10-14T00:09:23;15.80;99.90
36660;DHT22;22654;51.054;3.654;2022-10-14T00:11:49;15.80;99.90
36660;DHT22;22654;51.054;3.654;2022-10-14T00:14:17;15.90;99.90
36660;DHT22;22654;51.054;3.654;2022-10-14T00:16:46;15.80;99.90
36660;DHT22;22654;51.054;3.654;2022-10-14T00:19:13;15.80;99.90
36660;DHT22;22654;51.054;3.654;2022-10-14T00:21:41;15.80;99.90
36660;DHT22;22654;51.054;3.654;2022-10-14T00:24:12;15.60;99.90
36660;DHT22;22654;51.054;3.654;2022-10-14T00:26:39;15.60;99.90
36660;DHT22;22654;51.054;3.654;2022-10-14T00:29:10;15.70;99.90
36660;DHT22;22654;51.054;3.654;2022-10-14T00:31:36;15.70;99.90
36660;DHT22;22654;51.054;3.654;2022-10-14T00:34:02;15.60;99.90
36660;DHT22;22654;51.054;3.654;2022-10-14T00:36:28;15.50;99.90
36660;DHT22;22654;51.054;3.654;2022-10-14T00:38:54;15.50;99.90
36660;DHT22;22654;51.054;3.654;2022-10-14T00:41:23;15.50;99.90
36660;DHT22;22654;51.054;3.654;2022-10-14T00:43:54;15.60;99.90
36660;DHT22;22654;51.054;3.654;2022-10-14T00:46:20;15.50;99.90
36660;DHT22;22654;51.054;3.654;2022-10-14T00:48:50;15.60;99.90
36660;DHT22;22654;51.054;3.654;2022-10-14T00:51:17;15.50;99.90
36660;DHT22;22654;51.054;3.654;2022-10-14T00:53:43;15.60;99.90
36660;DHT22;22654;51.054;3.654;2022-10-14T00:56:10;15.60;99.90
36660;DHT22;22654;51.054;3.654;2022-10-14T00:58:38;15.50;99.90
36660;DHT22;22654;51.054;3.654;2022-10-14T01:01:04;15.60;99.90
36660;DHT22;22654;51.054;3.654;2022-10-14T01:03:32;15.60;99.90
36660;DHT22;22654;51.054;3.654;2022-10-14T01:06:51;15.60;99.90
36660;DHT22;22654;51.054;3.654;2022-10-14T01:09:01;15.60;99.90
36660;DHT22;22654;51.054;3.654;2022-10-14T01:14:30;15.60;99.90
36660;DHT22;22654;51.054;3.654;2022-10-14T01:17:10;15.60;99.90
36660;DHT22;22654;51.054;3.654;2022-10-14T01:31:31;15.60;99.90
36660;DHT22;22654;51.054;3.654;2022-10-14T01:34:01;15.70;99.90
36660;DHT22;22654;51.054;3.654;2022-10-14T01:36:36;15.70;99.90
36660;DHT22;22654;51.054;3.654;2022-10-14T01:39:11;15.70;99.90
36660;DHT22;22654;51.054;3.654;2022-10-14T01:41:45;15.70;99.90
36660;DHT22;22654;51.054;3.654;2022-10-14T01:44:15;15.60;99.90
36660;DHT22;22654;51.054;3.654;2022-10-14T01:46:46;15.60;99.90
36660;DHT22;22654;51.054;3.654;2022-10-14T01:49:28;15.60;99.90
36660;DHT22;22654;51.054;3.654;2022-10-14T01:52:04;15.70;99.90
36660;DHT22;22654;51.054;3.654;2022-10-14T01:54:34;15.70;99.90
36660;DHT22;22654;51.054;3.654;2022-10-14T01:57:10;15.60;99.90
36660;DHT22;22654;51.054;3.654;2022-10-14T01:59:37;15.60;99.90
36660;DHT22;22654;51.054;3.654;2022-10-14T02:02:05;15.80;99.90
36660;DHT22;22654;51.054;3.654;2022-10-14T02:04:31;15.80;99.90
36660;DHT22;22654;51.054;3.654;2022-10-14T02:07:10;15.90;99.90
36660;DHT22;22654;51.054;3.654;2022-10-14T02:18:32;15.60;99.90
36660;DHT22;22654;51.054;3.654;2022-10-14T02:21:29;15.70;99.90
36660;DHT22;22654;51.054;3.654;2022-10-14T02:24:19;15.60;99.90
36660;DHT22;22654;51.054;3.654;2022-10-14T02:26:47;15.60;99.90
36660;DHT22;22654;51.054;3.654;2022-10-14T02:29:16;15.60;99.90
36660;DHT22;22654;51.054;3.654;2022-10-14T02:31:44;15.70;99.90
36660;DHT22;22654;51.054;3.654;2022-10-14T02:34:16;15.70;99.90
36660;DHT22;22654;51.054;3.654;2022-10-14T02:36:44;15.80;99.90
36660;DHT22;22654;51.054;3.654;2022-10-14T02:39:12;15.70;99.90
36660;DHT22;22654;51.054;3.654;2022-10-14T02:41:40;15.70;99.90
36660;DHT22;22654;51.054;3.654;2022-10-14T02:44:06;15.60;99.90
36660;DHT22;22654;51.054;3.654;2022-10-14T02:46:34;15.60;99.90
36660;DHT22;22654;51.054;3.654;2022-10-14T02:49:00;15.50;99.90
36660;DHT22;22654;51.054;3.654;2022-10-14T02:51:26;15.60;99.90
36660;DHT22;22654;51.054;3.654;2022-10-14T02:53:52;15.70;99.90
36660;DHT22;22654;51.054;3.654;2022-10-14T02:56:18;15.80;99.90
36660;DHT22;22654;51.054;3.654;2022-10-14T02:58:43;15.80;99.90
36660;DHT22;22654;51.054;3.654;2022-10-14T03:01:09;15.70;99.90
36660;DHT22;22654;51.054;3.654;2022-10-14T03:03:35;15.80;99.90
36660;DHT22;22654;51.054;3.654;2022-10-14T03:06:02;15.70;99.90
36660;DHT22;22654;51.054;3.654;2022-10-14T03:08:28;15.80;99.90
36660;DHT22;22654;51.054;3.654;2022-10-14T03:10:57;15.70;99.90
36660;DHT22;22654;51.054;3.654;2022-10-14T03:13:24;15.80;99.90
36660;DHT22;22654;51.054;3.654;2022-10-14T03:15:50;15.70;99.90
36660;DHT22;22654;51.054;3.654;2022-10-14T03:18:17;15.70;99.90
36660;DHT22;22654;51.054;3.654;2022-10-14T03:20:46;15.80;99.90
36660;DHT22;22654;51.054;3.654;2022-10-14T03:23:17;15.90;99.90
36660;DHT22;22654;51.054;3.654;2022-10-14T03:25:47;15.90;99.90
36660;DHT22;22654;51.054;3.654;2022-10-14T03:28:20;15.90;99.90
36660;DHT22;22654;51.054;3.654;2022-10-14T03:30:51;15.80;99.90
36660;DHT22;22654;51.054;3.654;2022-10-14T03:33:31;15.60;99.90
36660;DHT22;22654;51.054;3.654;2022-10-14T03:36:07;15.60;99.90
36660;DHT22;22654;51.054;3.654;2022-10-14T03:38:42;15.70;99.90
36660;DHT22;22654;51.054;3.654;2022-10-14T03:41:14;15.70;99.90
36660;DHT22;22654;51.054;3.654;2022-10-14T03:43:40;15.80;99.90
36660;DHT22;22654;51.054;3.654;2022-10-14T03:46:06;15.80;99.90
36660;DHT22;22654;51.054;3.654;2022-10-14T03:48:32;15.80;99.90
36660;DHT22;22654;51.054;3.654;2022-10-14T03:50:58;15.80;99.90
36660;DHT22;22654;51.054;3.654;2022-10-14T03:53:24;15.90;99.90
36660;DHT22;22654;51.054;3.654;2022-10-14T03:55:50;15.90;99.90
36660;DHT22;22654;51.054;3.654;2022-10-14T03:58:16;16.00;99.90
36660;DHT22;22654;51.054;3.654;2022-10-14T04:00:50;15.80;99.90
36660;DHT22;22654;51.054;3.654;2022-10-14T04:03:30;15.80;99.90
36660;DHT22;22654;51.054;3.654;2022-10-14T04:05:56;15.60;99.90
36660;DHT22;22654;51.054;3.654;2022-10-14T04:08:24;15.70;99.90
36660;DHT22;22654;51.054;3.654;2022-10-14T04:11:01;15.70;99.90
36660;DHT22;22654;51.054;3.654;2022-10-14T04:13:32;15.60;99.90
36660;DHT22;22654;51.054;3.654;2022-10-14T04:16:05;15.70;99.90
36660;DHT22;22654;51.054;3.654;2022-10-14T04:18:57;15.70;99.90
36660;DHT22;22654;51.054;3.654;2022-10-14T04:21:24;15.90;99.90
36660;DHT22;22654;51.054;3.654;2022-10-14T04:23:51;15.90;99.90
36660;DHT22;22654;51.054;3.654;2022-10-14T04:26:20;15.90;99.90
36660;DHT22;22654;51.054;3.654;2022-10-14T04:28:46;15.80;99.90
36660;DHT22;22654;51.054;3.654;2022-10-14T04:31:19;15.70;99.90
36660;DHT22;22654;51.054;3.654;2022-10-14T04:33:55;15.70;99.90
36660;DHT22;22654;51.054;3.654;2022-10-14T04:36:28;15.60;99.90
36660;DHT22;22654;51.054;3.654;2022-10-14T04:38:56;15.60;99.90
36660;DHT22;22654;51.054;3.654;2022-10-14T04:41:23;15.70;99.90
36660;DHT22;22654;51.054;3.654;2022-10-14T04:43:49;15.70;99.90
36660;DHT22;22654;51.054;3.654;2022-10-14T04:46:22;15.60;99.90
36660;DHT22;22654;51.054;3.654;2022-10-14T04:48:49;15.50;99.90
36660;DHT22;22654;51.054;3.654;2022-10-14T04:51:16;15.60;99.90
36660;DHT22;22654;51.054;3.654;2022-10-14T04:54:02;15.70;99.90
36660;DHT22;22654;51.054;3.654;2022-10-14T04:56:37;15.70;99.90
36660;DHT22;22654;51.054;3.654;2022-10-14T04:59:04;15.70;99.90
36660;DHT22;22654;51.054;3.654;2022-10-14T05:01:52;15.60;99.90
36660;DHT22;22654;51.054;3.654;2022-10-14T05:04:18;15.50;99.90
36660;DHT22;22654;51.054;3.654;2022-10-14T05:06:46;15.50;99.90
36660;DHT22;22654;51.054;3.654;2022-10-14T05:09:16;15.60;99.90
36660;DHT22;22654;51.054;3.654;2022-10-14T05:11:43;15.50;99.90
36660;DHT22;22654;51.054;3.654;2022-10-14T05:14:12;15.60;99.90
36660;DHT22;22654;51.054;3.654;2022-10-14T05:16:40;15.70;99.90
36660;DHT22;22654;51.054;3.654;2022-10-14T05:19:08;15.70;99.90
36660;DHT22;22654;51.054;3.654;2022-10-14T05:21:39;15.60;99.90
36660;DHT22;22654;51.054;3.654;2022-10-14T05:24:12;15.50;99.90
36660;DHT22;22654;51.054;3.654;2022-10-14T05:26:39;15.40;99.90
36660;DHT22;22654;51.054;3.654;2022-10-14T05:29:10;15.40;99.90
36660;DHT22;22654;51.054;3.654;2022-10-14T05:31:37;15.50;99.90
36660;DHT22;22654;51.054;3.654;2022-10-14T05:34:17;15.40;99.90
36660;DHT22;22654;51.054;3.654;2022-10-14T05:36:44;15.50;99.90
36660;DHT22;22654;51.054;3.654;2022-10-14T05:39:10;15.60;99.90
36660;DHT22;22654;51.054;3.654;2022-10-14T05:41:38;15.40;99.90
36660;DHT22;22654;51.054;3.654;2022-10-14T05:44:04;15.40;99.90
36660;DHT22;22654;51.054;3.654;2022-10-14T05:46:32;15.50;99.90
36660;DHT22;22654;51.054;3.654;2022-10-14T05:48:58;15.70;99.90
36660;DHT22;22654;51.054;3.654;2022-10-14T05:51:27;15.70;99.90
36660;DHT22;22654;51.054;3.654;2022-10-14T05:54:00;15.60;99.90
36660;DHT22;22654;51.054;3.654;2022-10-14T05:56:26;15.60;99.90
36660;DHT22;22654;51.054;3.654;2022-10-14T05:58:52;15.70;99.90
36660;DHT22;22654;51.054;3.654;2022-10-14T06:01:19;15.80;99.90
36660;DHT22;22654;51.054;3.654;2022-10-14T06:03:49;15.80;99.90
36660;DHT22;22654;51.054;3.654;2022-10-14T06:06:15;15.80;99.90
36660;DHT22;22654;51.054;3.654;2022-10-14T06:08:41;15.70;99.90
36660;DHT22;22654;51.054;3.654;2022-10-14T06:11:11;15.60;99.90
36660;DHT22;22654;51.054;3.654;2022-10-14T06:13:38;15.50;99.90
36660;DHT22;22654;51.054;3.654;2022-10-14T06:16:08;15.50;99.90
36660;DHT22;22654;51.054;3.654;2022-10-14T06:18:40;15.40;99.90
36660;DHT22;22654;51.054;3.654;2022-10-14T06:21:06;15.30;99.90
36660;DHT22;22654;51.054;3.654;2022-10-14T06:23:34;15.20;99.90
36660;DHT22;22654;51.054;3.654;2022-10-14T06:26:03;15.20;99.90
36660;DHT22;22654;51.054;3.654;2022-10-14T06:28:31;15.30;99.90
36660;DHT22;22654;51.054;3.654;2022-10-14T06:30:57;15.30;99.90
36660;DHT22;22654;51.054;3.654;2022-10-14T06:33:22;15.30;99.90
36660;DHT22;22654;51.054;3.654;2022-10-14T06:35:48;15.30;99.90
36660;DHT22;22654;51.054;3.654;2022-10-14T06:38:14;15.30;99.90
36660;DHT22;22654;51.054;3.654;2022-10-14T06:40:40;15.30;99.90
36660;DHT22;22654;51.054;3.654;2022-10-14T06:43:06;15.30;99.90
36660;DHT22;22654;51.054;3.654;2022-10-14T06:45:32;15.30;99.90
36660;DHT22;22654;51.054;3.654;2022-10-14T06:47:58;15.40;99.90
36660;DHT22;22654;51.054;3.654;2022-10-14T06:50:24;15.50;99.90
36660;DHT22;22654;51.054;3.654;2022-10-14T06:52:49;15.40;99.90
36660;DHT22;22654;51.054;3.654;2022-10-14T06:55:16;15.40;99.90
36660;DHT22;22654;51.054;3.654;2022-10-14T06:57:42;15.40;99.90
36660;DHT22;22654;51.054;3.654;2022-10-14T07:00:09;15.60;99.90
36660;DHT22;22654;51.054;3.654;2022-10-14T07:02:38;15.60;99.90
36660;DHT22;22654;51.054;3.654;2022-10-14T07:05:04;15.60;99.90
36660;DHT22;22654;51.054;3.654;2022-10-14T07:07:31;15.70;99.90
36660;DHT22;22654;51.054;3.654;2022-10-14T07:09:57;15.00;99.90
36660;DHT22;22654;51.054;3.654;2022-10-14T07:12:24;15.60;99.90
36660;DHT22;22654;51.054;3.654;2022-10-14T07:14:50;15.50;99.90
36660;DHT22;22654;51.054;3.654;2022-10-14T07:17:16;15.50;99.90
36660;DHT22;22654;51.054;3.654;2022-10-14T07:19:42;15.50;99.90
36660;DHT22;22654;51.054;3.654;2022-10-14T07:22:09;15.50;99.90
36660;DHT22;22654;51.054;3.654;2022-10-14T07:24:35;15.60;99.90
36660;DHT22;22654;51.054;3.654;2022-10-14T07:27:00;15.70;99.90
36660;DHT22;22654;51.054;3.654;2022-10-14T07:29:27;15.80;99.90
36660;DHT22;22654;51.054;3.654;2022-10-14T07:31:53;15.80;99.90
36660;DHT22;22654;51.054;3.654;2022-10-14T07:34:19;15.70;99.90
36660;DHT22;22654;51.054;3.654;2022-10-14T07:36:44;15.70;99.90
36660;DHT22;22654;51.054;3.654;2022-10-14T07:39:10;15.60;99.90
36660;DHT22;22654;51.054;3.654;2022-10-14T07:41:39;15.80;99.90
36660;DHT22;22654;51.054;3.654;2022-10-14T07:44:06;15.80;99.90
36660;DHT22;22654;51.054;3.654;2022-10-14T07:46:37;15.80;99.90
36660;DHT22;22654;51.054;3.654;2022-10-14T07:49:17;15.70;99.90
36660;DHT22;22654;51.054;3.654;2022-10-14T07:51:45;15.60;99.90
36660;DHT22;22654;51.054;3.654;2022-10-14T07:54:17;15.60;99.90
36660;DHT22;22654;51.054;3.654;2022-10-14T07:56:44;15.80;99.90
36660;DHT22;22654;51.054;3.654;2022-10-14T07:59:11;15.90;99.90
36660;DHT22;22654;51.054;3.654;2022-10-14T08:01:37;16.00;99.90
36660;DHT22;22654;51.054;3.654;2022-10-14T08:04:03;16.10;99.90
36660;DHT22;22654;51.054;3.654;2022-10-14T08:06:29;16.20;99.90
36660;DHT22;22654;51.054;3.654;2022-10-14T08:08:55;16.20;99.90
36660;DHT22;22654;51.054;3.654;2022-10-14T08:11:26;16.20;99.90
36660;DHT22;22654;51.054;3.654;2022-10-14T08:13:53;16.20;99.90
36660;DHT22;22654;51.054;3.654;2022-10-14T08:16:20;16.20;99.90
36660;DHT22;22654;51.054;3.654;2022-10-14T08:18:51;16.20;99.90
36660;DHT22;22654;51.054;3.654;2022-10-14T08:21:18;16.30;99.90
36660;DHT22;22654;51.054;3.654;2022-10-14T08:23:45;16.30;99.90
36660;DHT22;22654;51.054;3.654;2022-10-14T08:26:19;16.20;99.90
36660;DHT22;22654;51.054;3.654;2022-10-14T08:28:47;16.40;99.90
36660;DHT22;22654;51.054;3.654;2022-10-14T08:31:13;16.50;99.90
36660;DHT22;22654;51.054;3.654;2022-10-14T08:33:39;16.40;99.90
36660;DHT22;22654;51.054;3.654;2022-10-14T08:36:05;16.60;99.90
36660;DHT22;22654;51.054;3.654;2022-10-14T08:38:31;16.30;99.90
36660;DHT22;22654;51.054;3.654;2022-10-14T08:43:28;16.50;99.90
36660;DHT22;22654;51.054;3.654;2022-10-14T08:46:01;16.40;99.90
36660;DHT22;22654;51.054;3.654;2022-10-14T08:48:30;16.40;99.90
36660;DHT22;22654;51.054;3.654;2022-10-14T08:51:03;16.40;99.90
36660;DHT22;22654;51.054;3.654;2022-10-14T08:53:39;16.50;99.90
36660;DHT22;22654;51.054;3.654;2022-10-14T08:56:09;16.60;99.90
36660;DHT22;22654;51.054;3.654;2022-10-14T08:58:42;16.60;99.90
36660;DHT22;22654;51.054;3.654;2022-10-14T09:01:18;16.60;99.90
36660;DHT22;22654;51.054;3.654;2022-10-14T09:03:46;16.70;99.90
36660;DHT22;22654;51.054;3.654;2022-10-14T09:06:27;16.80;99.90
36660;DHT22;22654;51.054;3.654;2022-10-14T09:12:19;17.00;99.90
36660;DHT22;22654;51.054;3.654;2022-10-14T09:14:48;17.00;99.90
36660;DHT22;22654;51.054;3.654;2022-10-14T09:17:25;17.20;99.90
36660;DHT22;22654;51.054;3.654;2022-10-14T09:23:16;17.60;99.90
36660;DHT22;22654;51.054;3.654;2022-10-14T09:28:16;17.60;99.90
36660;DHT22;22654;51.054;3.654;2022-10-14T09:30:44;17.80;99.90
36660;DHT22;22654;51.054;3.654;2022-10-14T09:33:15;18.00;99.90
36660;DHT22;22654;51.054;3.654;2022-10-14T09:35:42;18.00;99.90
36660;DHT22;22654;51.054;3.654;2022-10-14T09:38:11;18.20;99.90
36660;DHT22;22654;51.054;3.654;2022-10-14T09:40:42;18.20;99.90
36660;DHT22;22654;51.054;3.654;2022-10-14T09:45:47;18.10;99.90
36660;DHT22;22654;51.054;3.654;2022-10-14T09:50:53;18.10;99.90
36660;DHT22;22654;51.054;3.654;2022-10-14T09:53:39;18.00;99.90
36660;DHT22;22654;51.054;3.654;2022-10-14T09:56:10;18.20;99.90
36660;DHT22;22654;51.054;3.654;2022-10-14T09:58:44;18.30;99.90
36660;DHT22;22654;51.054;3.654;2022-10-14T10:01:19;18.50;99.90
36660;DHT22;22654;51.054;3.654;2022-10-14T10:03:47;18.80;99.90
36660;DHT22;22654;51.054;3.654;2022-10-14T10:06:22;18.70;99.90
36660;DHT22;22654;51.054;3.654;2022-10-14T10:11:35;18.40;99.90
36660;DHT22;22654;51.054;3.654;2022-10-14T10:14:24;18.30;99.90
36660;DHT22;22654;51.054;3.654;2022-10-14T10:17:11;18.50;99.90
36660;DHT22;22654;51.054;3.654;2022-10-14T10:19:51;18.50;99.90
36660;DHT22;22654;51.054;3.654;2022-10-14T10:22:30;18.50;99.90
36660;DHT22;22654;51.054;3.654;2022-10-14T10:27:30;18.70;99.90
36660;DHT22;22654;51.054;3.654;2022-10-14T10:35:51;18.60;99.90
36660;DHT22;22654;51.054;3.654;2022-10-14T10:52:28;20.10;99.90
36660;DHT22;22654;51.054;3.654;2022-10-14T11:03:52;21.50;99.90
36660;DHT22;22654;51.054;3.654;2022-10-14T11:09:34;21.00;99.90
36660;DHT22;22654;51.054;3.654;2022-10-14T11:15:21;21.20;99.90
36660;DHT22;22654;51.054;3.654;2022-10-14T11:20:37;21.50;99.90
36660;DHT22;22654;51.054;3.654;2022-10-14T11:39:54;21.10;99.90
36660;DHT22;22654;51.054;3.654;2022-10-14T11:42:26;21.00;99.90
36660;DHT22;22654;51.054;3.654;2022-10-14T11:51:16;20.90;99.90
36660;DHT22;22654;51.054;3.654;2022-10-14T11:54:02;21.00;99.90
36660;DHT22;22654;51.054;3.654;2022-10-14T11:56:42;21.30;99.90
36660;DHT22;22654;51.054;3.654;2022-10-14T11:59:35;21.40;99.90
36660;DHT22;22654;51.054;3.654;2022-10-14T12:02:19;21.40;99.90
36660;DHT22;22654;51.054;3.654;2022-10-14T12:05:27;21.60;99.90
36660;DHT22;22654;51.054;3.654;2022-10-14T12:10:47;21.80;99.90
36660;DHT22;22654;51.054;3.654;2022-10-14T12:13:17;21.70;99.90
36660;DHT22;22654;51.054;3.654;2022-10-14T12:15:48;21.60;99.90
36660;DHT22;22654;51.054;3.654;2022-10-14T12:18:16;21.40;99.90
36660;DHT22;22654;51.054;3.654;2022-10-14T12:20:54;21.30;99.90
36660;DHT22;22654;51.054;3.654;2022-10-14T12:23:35;21.40;99.90
36660;DHT22;22654;51.054;3.654;2022-10-14T12:28:46;21.30;99.90
36660;DHT22;22654;51.054;3.654;2022-10-14T12:31:35;21.10;99.90
36660;DHT22;22654;51.054;3.654;2022-10-14T12:36:37;20.90;99.90
36660;DHT22;22654;51.054;3.654;2022-10-14T12:41:49;20.70;99.90
36660;DHT22;22654;51.054;3.654;2022-10-14T12:44:21;20.70;99.90
36660;DHT22;22654;51.054;3.654;2022-10-14T12:46:55;20.60;99.90
36660;DHT22;22654;51.054;3.654;2022-10-14T12:49:32;20.60;99.90
36660;DHT22;22654;51.054;3.654;2022-10-14T12:52:08;20.70;99.90
36660;DHT22;22654;51.054;3.654;2022-10-14T12:54:36;20.60;99.90
36660;DHT22;22654;51.054;3.654;2022-10-14T12:57:05;20.70;99.90
36660;DHT22;22654;51.054;3.654;2022-10-14T12:59:36;20.60;99.90
36660;DHT22;22654;51.054;3.654;2022-10-14T13:02:17;20.50;99.90
36660;DHT22;22654;51.054;3.654;2022-10-14T13:04:52;20.40;99.90
36660;DHT22;22654;51.054;3.654;2022-10-14T13:10:24;20.60;99.90
36660;DHT22;22654;51.054;3.654;2022-10-14T13:12:45;20.70;99.90
36660;DHT22;22654;51.054;3.654;2022-10-14T13:17:55;20.60;99.90
36660;DHT22;22654;51.054;3.654;2022-10-14T13:23:40;20.60;99.90
36660;DHT22;22654;51.054;3.654;2022-10-14T13:26:34;20.60;99.90
36660;DHT22;22654;51.054;3.654;2022-10-14T13:32:08;20.60;99.90
36660;DHT22;22654;51.054;3.654;2022-10-14T13:37:42;20.50;99.90
36660;DHT22;22654;51.054;3.654;2022-10-14T13:40:28;20.30;99.90
36660;DHT22;22654;51.054;3.654;2022-10-14T13:43:01;20.20;99.90
36660;DHT22;22654;51.054;3.654;2022-10-14T13:45:33;20.10;99.90
36660;DHT22;22654;51.054;3.654;2022-10-14T13:48:00;20.00;99.90
36660;DHT22;22654;51.054;3.654;2022-10-14T13:50:32;20.00;99.90
36660;DHT22;22654;51.054;3.654;2022-10-14T13:53:17;20.00;99.90
36660;DHT22;22654;51.054;3.654;2022-10-14T13:55:46;20.00;99.90
36660;DHT22;22654;51.054;3.654;2022-10-14T13:58:15;20.20;99.90
36660;DHT22;22654;51.054;3.654;2022-10-14T14:03:34;20.00;99.90
36660;DHT22;22654;51.054;3.654;2022-10-14T14:06:22;19.80;99.90
36660;DHT22;22654;51.054;3.654;2022-10-14T14:09:01;19.70;99.90
36660;DHT22;22654;51.054;3.654;2022-10-14T14:11:35;19.70;99.90
36660;DHT22;22654;51.054;3.654;2022-10-14T14:14:06;19.60;99.90
36660;DHT22;22654;51.054;3.654;2022-10-14T14:16:54;19.50;99.90
36660;DHT22;22654;51.054;3.654;2022-10-14T14:22:28;19.60;99.90
36660;DHT22;22654;51.054;3.654;2022-10-14T14:25:21;19.40;99.90
36660;DHT22;22654;51.054;3.654;2022-10-14T14:28:00;19.40;99.90
36660;DHT22;22654;51.054;3.654;2022-10-14T14:30:33;19.40;99.90
36660;DHT22;22654;51.054;3.654;2022-10-14T14:33:09;19.40;99.90
36660;DHT22;22654;51.054;3.654;2022-10-14T14:35:36;19.50;99.90
36660;DHT22;22654;51.054;3.654;2022-10-14T14:38:01;19.40;99.90
36660;DHT22;22654;51.054;3.654;2022-10-14T14:40:29;19.30;99.90
36660;DHT22;22654;51.054;3.654;2022-10-14T14:43:00;19.30;99.90
36660;DHT22;22654;51.054;3.654;2022-10-14T14:45:36;19.30;99.90
36660;DHT22;22654;51.054;3.654;2022-10-14T14:48:05;19.30;99.90
36660;DHT22;22654;51.054;3.654;2022-10-14T14:50:38;19.30;99.90
36660;DHT22;22654;51.054;3.654;2022-10-14T14:53:21;19.30;99.90
36660;DHT22;22654;51.054;3.654;2022-10-14T14:58:27;19.40;99.90
36660;DHT22;22654;51.054;3.654;2022-10-14T15:00:54;19.40;99.90
36660;DHT22;22654;51.054;3.654;2022-10-14T15:03:25;19.40;99.90
36660;DHT22;22654;51.054;3.654;2022-10-14T15:05:58;19.50;99.90
36660;DHT22;22654;51.054;3.654;2022-10-14T15:08:33;19.40;99.90
36660;DHT22;22654;51.054;3.654;2022-10-14T15:11:00;19.30;99.90
36660;DHT22;22654;51.054;3.654;2022-10-14T15:13:31;19.20;99.90
36660;DHT22;22654;51.054;3.654;2022-10-14T15:15:57;19.20;99.90
36660;DHT22;22654;51.054;3.654;2022-10-14T15:18:25;19.10;99.90
36660;DHT22;22654;51.054;3.654;2022-10-14T15:21:14;19.10;99.90
36660;DHT22;22654;51.054;3.654;2022-10-14T15:26:28;18.80;99.90
36660;DHT22;22654;51.054;3.654;2022-10-14T15:31:37;18.70;99.90
36660;DHT22;22654;51.054;3.654;2022-10-14T15:34:04;18.70;99.90
36660;DHT22;22654;51.054;3.654;2022-10-14T15:36:32;18.70;99.90
36660;DHT22;22654;51.054;3.654;2022-10-14T15:38:59;18.70;99.90
36660;DHT22;22654;51.054;3.654;2022-10-14T15:41:27;18.60;99.90
36660;DHT22;22654;51.054;3.654;2022-10-14T15:43:53;18.50;99.90
36660;DHT22;22654;51.054;3.654;2022-10-14T15:46:19;18.60;99.90
36660;DHT22;22654;51.054;3.654;2022-10-14T15:49:12;18.50;99.90
36660;DHT22;22654;51.054;3.654;2022-10-14T15:51:38;18.30;99.90
36660;DHT22;22654;51.054;3.654;2022-10-14T15:54:09;18.20;99.90
36660;DHT22;22654;51.054;3.654;2022-10-14T15:56:35;18.00;99.90
36660;DHT22;22654;51.054;3.654;2022-10-14T15:59:01;18.00;99.90
36660;DHT22;22654;51.054;3.654;2022-10-14T16:01:27;18.20;99.90
36660;DHT22;22654;51.054;3.654;2022-10-14T16:03:52;18.00;99.90
36660;DHT22;22654;51.054;3.654;2022-10-14T16:06:19;17.90;99.90
36660;DHT22;22654;51.054;3.654;2022-10-14T16:08:47;17.60;99.90
36660;DHT22;22654;51.054;3.654;2022-10-14T16:11:27;17.50;99.90
36660;DHT22;22654;51.054;3.654;2022-10-14T16:13:56;17.40;99.90
36660;DHT22;22654;51.054;3.654;2022-10-14T16:16:43;17.30;99.90
36660;DHT22;22654;51.054;3.654;2022-10-14T16:19:10;17.40;99.90
36660;DHT22;22654;51.054;3.654;2022-10-14T16:21:37;17.40;99.90
36660;DHT22;22654;51.054;3.654;2022-10-14T16:24:05;17.30;99.90
36660;DHT22;22654;51.054;3.654;2022-10-14T16:26:31;17.30;99.90
36660;DHT22;22654;51.054;3.654;2022-10-14T16:28:57;17.20;99.90
36660;DHT22;22654;51.054;3.654;2022-10-14T16:31:25;17.00;99.90
36660;DHT22;22654;51.054;3.654;2022-10-14T16:33:52;17.00;99.90
36660;DHT22;22654;51.054;3.654;2022-10-14T16:36:21;17.10;99.90
36660;DHT22;22654;51.054;3.654;2022-10-14T16:38:49;16.70;99.90
36660;DHT22;22654;51.054;3.654;2022-10-14T16:41:15;16.50;99.90
36660;DHT22;22654;51.054;3.654;2022-10-14T16:43:41;16.30;99.90
36660;DHT22;22654;51.054;3.654;2022-10-14T16:46:07;16.20;99.90
36660;DHT22;22654;51.054;3.654;2022-10-14T16:48:34;16.10;99.90
36660;DHT22;22654;51.054;3.654;2022-10-14T16:51:00;16.00;99.90
36660;DHT22;22654;51.054;3.654;2022-10-14T16:53:27;15.90;99.90
36660;DHT22;22654;51.054;3.654;2022-10-14T16:56:17;15.80;99.90
36660;DHT22;22654;51.054;3.654;2022-10-14T16:59:15;15.70;99.90
36660;DHT22;22654;51.054;3.654;2022-10-14T17:01:41;15.90;99.90
36660;DHT22;22654;51.054;3.654;2022-10-14T17:04:11;15.90;99.90
36660;DHT22;22654;51.054;3.654;2022-10-14T17:06:38;16.00;99.90
36660;DHT22;22654;51.054;3.654;2022-10-14T17:09:05;15.70;99.90
36660;DHT22;22654;51.054;3.654;2022-10-14T17:11:31;15.60;99.90
36660;DHT22;22654;51.054;3.654;2022-10-14T17:13:59;15.60;99.90
36660;DHT22;22654;51.054;3.654;2022-10-14T17:16:26;15.40;99.90
36660;DHT22;22654;51.054;3.654;2022-10-14T17:18:57;15.30;99.90
36660;DHT22;22654;51.054;3.654;2022-10-14T17:21:23;15.20;99.90
36660;DHT22;22654;51.054;3.654;2022-10-14T17:23:52;15.10;99.90
36660;DHT22;22654;51.054;3.654;2022-10-14T17:26:18;15.20;99.90
36660;DHT22;22654;51.054;3.654;2022-10-14T17:28:46;15.30;99.90
36660;DHT22;22654;51.054;3.654;2022-10-14T17:31:19;15.10;99.90
36660;DHT22;22654;51.054;3.654;2022-10-14T17:33:45;15.00;99.90
36660;DHT22;22654;51.054;3.654;2022-10-14T17:36:32;14.90;99.90
36660;DHT22;22654;51.054;3.654;2022-10-14T17:38:58;14.90;99.90
36660;DHT22;22654;51.054;3.654;2022-10-14T17:41:26;14.80;99.90
36660;DHT22;22654;51.054;3.654;2022-10-14T17:43:53;14.70;99.90
36660;DHT22;22654;51.054;3.654;2022-10-14T17:46:21;14.80;99.90
36660;DHT22;22654;51.054;3.654;2022-10-14T17:48:53;14.70;99.90
36660;DHT22;22654;51.054;3.654;2022-10-14T17:51:21;14.70;99.90
36660;DHT22;22654;51.054;3.654;2022-10-14T17:53:48;14.80;99.90
36660;DHT22;22654;51.054;3.654;2022-10-14T17:56:16;14.80;99.90
36660;DHT22;22654;51.054;3.654;2022-10-14T17:58:42;14.70;99.90
36660;DHT22;22654;51.054;3.654;2022-10-14T18:01:10;14.60;99.90
36660;DHT22;22654;51.054;3.654;2022-10-14T18:03:38;14.50;99.90
36660;DHT22;22654;51.054;3.654;2022-10-14T18:06:12;14.40;99.90
36660;DHT22;22654;51.054;3.654;2022-10-14T18:08:43;14.40;99.90
36660;DHT22;22654;51.054;3.654;2022-10-14T18:11:10;14.40;99.90
36660;DHT22;22654;51.054;3.654;2022-10-14T18:13:37;14.60;99.90
36660;DHT22;22654;51.054;3.654;2022-10-14T18:16:04;14.60;99.90
36660;DHT22;22654;51.054;3.654;2022-10-14T18:18:30;14.70;99.90